Página principal
METAR-TAF:

METAR-TAF

Aeroportos :

Nouakchott, Mauritânia

Aeroporto Internacional Nouakchott-Oumtounsy

latitude: 18-18-36N, longitude: 015-58-11W, altura: 3 m

Observação actual do tempo

O boletim foi feito há 1 hora e 28 minutos, às 05:00 UTC
Vento 10 kt de nor-noroeste
Temperatura 27°C
Humidade 79%
Pressão 1009 hPa
Visibilidade: 8000 m
Poucas nuvensa uma altura de 1500 ft

METAR: GQNO 120500Z 33010KT 8000 FEW015 27/23 Q1009 NOSIG

Hora: 06:28 (06:28 UTC)

Previsão

O boletim foi feito há 1 hora e 28 minutos, às 05:00 UTC
Previsão válida de 12 às 06 UTC a 13 às 12 UTC
Vento 10 kt de oeste
Visibilidade: 8000 m
Poucas nuvensa uma altura de 1500 ft

TAF: GQNO 120500Z 1206/1312 26010KT 8000 FEW015

Observações e previsões do tempo de mais de 4000 aeroportos (mensagens METAR e TAF).

As estações disponíveis são os pontos amarelos e vermelhos sobre o mapa.

Mova o rato sobre o mapa para ver o nome da estação.

Depois clique no ponto para visualizar as observações e previsões meteorológicas.

Para alterar o mapa : clique nos botões verdes com uma cruz preta para aumentar o zoom; no botão verde com uma pitada de zoom; ou nas setas verdes para mapas adjacentes.


METAR-TAF: